createdAt,value
2017-05-26T00:09:55.912Z,3.22
2017-05-26T00:31:02.208Z,2.98
2017-05-26T00:52:08.838Z,4.16
2017-05-26T01:13:14.725Z,4.42
2017-05-26T01:34:21.396Z,3.54
2017-05-26T01:55:27.578Z,3.72
2017-05-26T02:16:47.599Z,4.42
2017-05-26T02:37:53.588Z,3.82
2017-05-26T02:59:00.266Z,3.72
2017-05-26T03:20:06.375Z,5.28
2017-05-26T03:41:13.035Z,4.50
2017-05-26T04:02:19.250Z,5.76
2017-05-26T04:23:25.237Z,6.06
2017-05-26T04:44:31.791Z,7.10
2017-05-26T05:05:37.664Z,6.68
2017-05-26T05:26:44.348Z,6.38
2017-05-26T05:47:50.476Z,5.32
2017-05-26T06:08:56.136Z,5.02
2017-05-26T06:30:02.798Z,4.60
2017-05-26T06:51:08.684Z,5.20
2017-05-26T07:12:14.296Z,4.10
2017-05-26T07:33:20.240Z,3.10
2017-05-26T07:54:26.087Z,2.50
2017-05-26T08:15:32.952Z,2.34
2017-05-26T08:36:38.809Z,2.36
2017-05-26T08:57:45.605Z,2.18
2017-05-26T09:22:36.956Z,3.00
2017-05-26T09:43:43.151Z,2.40
2017-05-26T10:04:48.940Z,2.26
2017-05-26T10:25:54.849Z,2.72
2017-05-26T10:47:01.266Z,3.20
2017-05-26T11:08:07.733Z,3.12
2017-05-26T11:29:14.834Z,1.94
2017-05-26T11:50:20.518Z,1.66
2017-05-26T12:11:27.319Z,1.88
2017-05-26T12:32:34.788Z,1.76
2017-05-26T12:53:41.596Z,1.74
2017-05-26T13:34:04.942Z,2.70
2017-05-26T13:55:11.950Z,2.78
2017-05-26T14:16:19.246Z,2.66
2017-05-26T14:37:27.603Z,2.92
2017-05-26T14:58:34.701Z,2.68
2017-05-26T15:19:42.008Z,2.20
2017-05-26T15:40:50.015Z,2.44
2017-05-26T16:01:57.367Z,1.86
2017-05-26T16:23:03.619Z,2.48
2017-05-26T16:44:10.040Z,2.46
2017-05-26T17:05:16.611Z,3.20
2017-05-26T17:26:22.734Z,4.28
2017-05-26T17:47:29.677Z,3.68
2017-05-26T18:08:35.888Z,4.06
2017-05-26T18:29:43.111Z,5.74
2017-05-26T18:50:50.312Z,5.20
2017-05-26T19:11:56.099Z,4.16
2017-05-26T19:33:02.188Z,4.40
2017-05-26T19:54:08.149Z,6.20
2017-05-26T20:15:15.334Z,4.80
2017-05-26T20:36:21.423Z,5.20
2017-05-26T20:57:28.732Z,5.36
2017-05-26T21:18:35.919Z,4.48
2017-05-26T21:39:41.914Z,4.54
2017-05-26T22:00:47.900Z,3.72
2017-05-26T22:21:54.332Z,4.44
2017-05-26T22:43:00.868Z,5.24
2017-05-26T23:04:07.261Z,5.90
2017-05-26T23:25:14.152Z,4.40
2017-05-26T23:46:21.040Z,5.18
